sensor_id;sensor_type;location;lat;lon;timestamp;pressure;altitude;pressure_sealevel;temperature;humidity
44309;BME280;30022;55.846;37.340;2022-10-14T00:00:07;47453.63;;;-143.51;22.07
44309;BME280;30022;55.846;37.340;2022-10-14T00:02:38;47402.28;;;-143.51;22.12
44309;BME280;30022;55.846;37.340;2022-10-14T00:05:05;47400.31;;;-143.51;22.05
44309;BME280;30022;55.846;37.340;2022-10-14T00:07:32;47412.16;;;-143.51;21.99
44309;BME280;30022;55.846;37.340;2022-10-14T00:10:04;47431.91;;;-143.51;21.90
44309;BME280;30022;55.846;37.340;2022-10-14T00:12:31;47439.81;;;-143.51;22.01
44309;BME280;30022;55.846;37.340;2022-10-14T00:14:57;47408.22;;;-143.51;22.04
44309;BME280;30022;55.846;37.340;2022-10-14T00:17:34;47404.25;;;-143.51;22.01
44309;BME280;30022;55.846;37.340;2022-10-14T00:20:07;47410.19;;;-143.51;22.05
44309;BME280;30022;55.846;37.340;2022-10-14T00:22:36;47400.31;;;-143.51;22.05
44309;BME280;30022;55.846;37.340;2022-10-14T00:25:08;47429.94;;;-143.51;22.09
44309;BME280;30022;55.846;37.340;2022-10-14T00:27:37;47410.19;;;-143.51;22.20
44309;BME280;30022;55.846;37.340;2022-10-14T00:30:05;47404.25;;;-143.51;22.35
44309;BME280;30022;55.846;37.340;2022-10-14T00:32:30;47372.66;;;-143.51;22.12
44309;BME280;30022;55.846;37.340;2022-10-14T00:35:00;47382.53;;;-143.51;22.33
44309;BME280;30022;55.846;37.340;2022-10-14T00:37:28;47394.38;;;-143.51;22.21
44309;BME280;30022;55.846;37.340;2022-10-14T00:39:54;47396.34;;;-143.51;22.21
44309;BME280;30022;55.846;37.340;2022-10-14T00:42:23;47392.41;;;-143.51;22.26
44309;BME280;30022;55.846;37.340;2022-10-14T00:47:14;47429.94;;;-143.51;22.25
44309;BME280;30022;55.846;37.340;2022-10-14T00:49:41;47386.47;;;-143.51;22.24
44309;BME280;30022;55.846;37.340;2022-10-14T00:52:27;47431.91;;;-143.51;22.22
44309;BME280;30022;55.846;37.340;2022-10-14T00:54:55;47427.97;;;-143.51;22.13
44309;BME280;30022;55.846;37.340;2022-10-14T00:57:24;47412.16;;;-143.51;22.02
44309;BME280;30022;55.846;37.340;2022-10-14T00:59:51;47447.72;;;-143.51;22.03
44309;BME280;30022;55.846;37.340;2022-10-14T01:02:18;47431.91;;;-143.51;22.09
44309;BME280;30022;55.846;37.340;2022-10-14T01:04:43;47404.25;;;-143.51;22.07
44309;BME280;30022;55.846;37.340;2022-10-14T01:07:14;47394.38;;;-143.51;21.92
44309;BME280;30022;55.846;37.340;2022-10-14T01:12:19;47412.16;;;-143.51;21.95
44309;BME280;30022;55.846;37.340;2022-10-14T01:28:47;47348.94;;;-143.51;22.11
44309;BME280;30022;55.846;37.340;2022-10-14T01:31:18;47327.22;;;-143.51;22.00
44309;BME280;30022;55.846;37.340;2022-10-14T01:33:45;47356.84;;;-143.51;22.02
44309;BME280;30022;55.846;37.340;2022-10-14T01:43:36;47386.47;;;-143.51;21.87
44309;BME280;30022;55.846;37.340;2022-10-14T01:46:05;47408.22;;;-143.51;21.81
44309;BME280;30022;55.846;37.340;2022-10-14T01:48:32;47420.06;;;-143.51;21.75
44309;BME280;30022;55.846;37.340;2022-10-14T01:50:59;47412.16;;;-143.51;21.74
44309;BME280;30022;55.846;37.340;2022-10-14T01:53:30;47384.50;;;-143.51;21.58
44309;BME280;30022;55.846;37.340;2022-10-14T01:55:58;47376.59;;;-143.51;21.66
44309;BME280;30022;55.846;37.340;2022-10-14T01:58:25;47352.91;;;-143.51;21.72
44309;BME280;30022;55.846;37.340;2022-10-14T02:00:51;47378.56;;;-143.51;21.81
44309;BME280;30022;55.846;37.340;2022-10-14T02:03:17;47360.81;;;-143.51;21.69
44309;BME280;30022;55.846;37.340;2022-10-14T02:05:45;47378.56;;;-143.51;21.65
44309;BME280;30022;55.846;37.340;2022-10-14T02:08:51;47313.41;;;-143.51;21.66
44309;BME280;30022;55.846;37.340;2022-10-14T02:11:10;47360.81;;;-143.51;21.68
44309;BME280;30022;55.846;37.340;2022-10-14T02:18:43;47291.66;;;-143.51;21.67
44309;BME280;30022;55.846;37.340;2022-10-14T02:24:17;47273.91;;;-143.51;21.87
44309;BME280;30022;55.846;37.340;2022-10-14T02:26:44;47269.94;;;-143.51;21.71
44309;BME280;30022;55.846;37.340;2022-10-14T02:29:11;47238.34;;;-143.51;21.75
44309;BME280;30022;55.846;37.340;2022-10-14T02:31:37;47236.38;;;-143.51;21.55
44309;BME280;30022;55.846;37.340;2022-10-14T02:34:04;47323.28;;;-143.51;21.89
44309;BME280;30022;55.846;37.340;2022-10-14T02:36:35;47260.06;;;-143.51;21.87
44309;BME280;30022;55.846;37.340;2022-10-14T02:39:05;47277.84;;;-143.51;21.76
44309;BME280;30022;55.846;37.340;2022-10-14T02:41:32;47250.19;;;-143.51;21.70
44309;BME280;30022;55.846;37.340;2022-10-14T02:43:59;47262.03;;;-143.51;21.63
44309;BME280;30022;55.846;37.340;2022-10-14T02:46:33;47271.91;;;-143.51;21.86
44309;BME280;30022;55.846;37.340;2022-10-14T02:48:59;47258.09;;;-143.51;21.73
44309;BME280;30022;55.846;37.340;2022-10-14T02:51:25;47311.41;;;-143.51;21.73
44309;BME280;30022;55.846;37.340;2022-10-14T02:53:50;47256.13;;;-143.51;21.62
44309;BME280;30022;55.846;37.340;2022-10-14T02:56:16;47267.97;;;-143.51;21.57
44309;BME280;30022;55.846;37.340;2022-10-14T02:58:42;47285.75;;;-143.51;21.72
44309;BME280;30022;55.846;37.340;2022-10-14T03:01:07;47214.63;;;-143.51;21.88
44309;BME280;30022;55.846;37.340;2022-10-14T03:03:34;47252.16;;;-143.51;21.87
44309;BME280;30022;55.846;37.340;2022-10-14T03:06:01;47285.75;;;-143.51;21.63
44309;BME280;30022;55.846;37.340;2022-10-14T03:08:28;47246.25;;;-143.51;21.61
44309;BME280;30022;55.846;37.340;2022-10-14T03:10:55;47260.06;;;-143.51;21.59
44309;BME280;30022;55.846;37.340;2022-10-14T03:13:21;47303.53;;;-143.51;21.61
44309;BME280;30022;55.846;37.340;2022-10-14T03:15:48;47301.53;;;-143.51;21.80
44309;BME280;30022;55.846;37.340;2022-10-14T03:18:18;47266.00;;;-143.51;21.49
44309;BME280;30022;55.846;37.340;2022-10-14T03:20:46;47327.22;;;-143.51;21.27
44309;BME280;30022;55.846;37.340;2022-10-14T03:23:17;47248.22;;;-143.51;21.71
44309;BME280;30022;55.846;37.340;2022-10-14T03:25:46;47285.75;;;-143.51;21.50
44309;BME280;30022;55.846;37.340;2022-10-14T03:28:17;47281.78;;;-143.51;21.49
44309;BME280;30022;55.846;37.340;2022-10-14T03:30:50;47319.31;;;-143.51;21.54
44309;BME280;30022;55.846;37.340;2022-10-14T03:33:29;47305.50;;;-143.51;21.38
44309;BME280;30022;55.846;37.340;2022-10-14T03:36:03;47352.91;;;-143.51;21.40
44309;BME280;30022;55.846;37.340;2022-10-14T03:38:40;47380.56;;;-143.51;21.31
44309;BME280;30022;55.846;37.340;2022-10-14T03:41:13;47339.06;;;-143.51;21.41
44309;BME280;30022;55.846;37.340;2022-10-14T03:43:38;47348.94;;;-143.51;21.48
44309;BME280;30022;55.846;37.340;2022-10-14T03:46:05;47329.19;;;-143.51;21.41
44309;BME280;30022;55.846;37.340;2022-10-14T03:48:30;47360.81;;;-143.51;21.35
44309;BME280;30022;55.846;37.340;2022-10-14T03:50:57;47303.53;;;-143.51;21.32
44309;BME280;30022;55.846;37.340;2022-10-14T03:53:24;47275.88;;;-143.51;21.46
44309;BME280;30022;55.846;37.340;2022-10-14T03:55:51;47297.59;;;-143.51;21.38
44309;BME280;30022;55.846;37.340;2022-10-14T03:58:18;47293.66;;;-143.51;21.31
44309;BME280;30022;55.846;37.340;2022-10-14T04:00:52;47354.88;;;-143.51;21.12
44309;BME280;30022;55.846;37.340;2022-10-14T04:03:28;47305.50;;;-143.51;21.30
44309;BME280;30022;55.846;37.340;2022-10-14T04:05:54;47354.88;;;-143.51;21.24
44309;BME280;30022;55.846;37.340;2022-10-14T04:08:22;47293.66;;;-143.51;21.06
44309;BME280;30022;55.846;37.340;2022-10-14T04:10:57;47346.97;;;-143.51;21.10
44309;BME280;30022;55.846;37.340;2022-10-14T04:13:26;47289.69;;;-143.51;21.10
44309;BME280;30022;55.846;37.340;2022-10-14T04:15:52;47348.94;;;-143.51;21.10
44309;BME280;30022;55.846;37.340;2022-10-14T04:18:25;47291.66;;;-143.51;21.04
44309;BME280;30022;55.846;37.340;2022-10-14T04:20:58;47307.47;;;-143.51;21.16
44309;BME280;30022;55.846;37.340;2022-10-14T04:23:23;47317.34;;;-143.51;21.12
44309;BME280;30022;55.846;37.340;2022-10-14T04:25:54;47262.03;;;-143.51;21.09
44309;BME280;30022;55.846;37.340;2022-10-14T04:28:21;47266.00;;;-143.51;21.15
44309;BME280;30022;55.846;37.340;2022-10-14T04:30:55;47246.25;;;-143.51;20.91
44309;BME280;30022;55.846;37.340;2022-10-14T04:33:26;47248.22;;;-143.51;21.30
44309;BME280;30022;55.846;37.340;2022-10-14T04:36:04;47222.53;;;-143.51;21.29
44309;BME280;30022;55.846;37.340;2022-10-14T04:38:34;47230.44;;;-143.51;21.20
44309;BME280;30022;55.846;37.340;2022-10-14T04:41:04;47224.50;;;-143.51;21.33
44309;BME280;30022;55.846;37.340;2022-10-14T04:43:30;47228.47;;;-143.51;21.44
44309;BME280;30022;55.846;37.340;2022-10-14T04:46:04;47256.13;;;-143.51;21.33
44309;BME280;30022;55.846;37.340;2022-10-14T04:48:31;47250.19;;;-143.51;21.01
44309;BME280;30022;55.846;37.340;2022-10-14T04:50:57;47226.50;;;-143.51;21.01
44309;BME280;30022;55.846;37.340;2022-10-14T04:53:45;47244.25;;;-143.51;21.02
44309;BME280;30022;55.846;37.340;2022-10-14T04:56:34;47262.03;;;-143.51;21.30
44309;BME280;30022;55.846;37.340;2022-10-14T04:59:03;47264.03;;;-143.51;21.11
44309;BME280;30022;55.846;37.340;2022-10-14T05:01:58;47256.13;;;-143.51;21.24
44309;BME280;30022;55.846;37.340;2022-10-14T05:04:33;47260.06;;;-143.51;21.06
44309;BME280;30022;55.846;37.340;2022-10-14T05:07:00;47301.53;;;-143.51;21.10
44309;BME280;30022;55.846;37.340;2022-10-14T05:09:26;47305.50;;;-143.51;20.99
44309;BME280;30022;55.846;37.340;2022-10-14T05:11:53;47297.59;;;-143.51;21.10
44309;BME280;30022;55.846;37.340;2022-10-14T05:14:23;47305.50;;;-143.51;21.20
44309;BME280;30022;55.846;37.340;2022-10-14T05:17:01;47345.00;;;-143.51;21.05
44309;BME280;30022;55.846;37.340;2022-10-14T05:19:29;47348.94;;;-143.51;21.18
44309;BME280;30022;55.846;37.340;2022-10-14T05:21:58;47317.34;;;-143.51;21.50
44309;BME280;30022;55.846;37.340;2022-10-14T05:24:31;47329.19;;;-143.51;21.50
44309;BME280;30022;55.846;37.340;2022-10-14T05:26:57;47293.66;;;-143.51;21.38
44309;BME280;30022;55.846;37.340;2022-10-14T05:29:24;47293.66;;;-143.51;21.54
44309;BME280;30022;55.846;37.340;2022-10-14T05:31:54;47291.66;;;-143.51;21.58
44309;BME280;30022;55.846;37.340;2022-10-14T05:34:32;47329.19;;;-143.51;21.53
44309;BME280;30022;55.846;37.340;2022-10-14T05:36:57;47285.75;;;-143.51;21.48
44309;BME280;30022;55.846;37.340;2022-10-14T05:39:24;47366.72;;;-143.51;21.63
44309;BME280;30022;55.846;37.340;2022-10-14T05:42:01;47346.97;;;-143.51;21.73
44309;BME280;30022;55.846;37.340;2022-10-14T05:44:29;47352.91;;;-143.51;21.71
44309;BME280;30022;55.846;37.340;2022-10-14T05:46:54;47376.59;;;-143.51;21.84
44309;BME280;30022;55.846;37.340;2022-10-14T05:49:21;47390.44;;;-143.51;21.59
44309;BME280;30022;55.846;37.340;2022-10-14T05:51:47;47420.06;;;-143.51;21.69
44309;BME280;30022;55.846;37.340;2022-10-14T05:54:20;47424.00;;;-143.51;21.77
44309;BME280;30022;55.846;37.340;2022-10-14T05:56:49;47441.78;;;-143.51;21.75
44309;BME280;30022;55.846;37.340;2022-10-14T05:59:15;47493.16;;;-143.51;21.81
44309;BME280;30022;55.846;37.340;2022-10-14T06:01:42;47497.09;;;-143.51;21.71
44309;BME280;30022;55.846;37.340;2022-10-14T06:04:17;47491.16;;;-143.51;21.68
44309;BME280;30022;55.846;37.340;2022-10-14T06:06:43;47501.03;;;-143.51;21.76
44309;BME280;30022;55.846;37.340;2022-10-14T06:09:09;47497.09;;;-143.51;21.63
44309;BME280;30022;55.846;37.340;2022-10-14T06:11:35;47499.06;;;-143.51;21.72
44309;BME280;30022;55.846;37.340;2022-10-14T06:14:00;47516.84;;;-143.51;21.65
44309;BME280;30022;55.846;37.340;2022-10-14T06:16:26;47506.97;;;-143.51;21.81
44309;BME280;30022;55.846;37.340;2022-10-14T06:18:52;47544.50;;;-143.51;21.68
44309;BME280;30022;55.846;37.340;2022-10-14T06:21:19;47562.28;;;-143.51;21.73
44309;BME280;30022;55.846;37.340;2022-10-14T06:23:45;47574.13;;;-143.51;21.60
44309;BME280;30022;55.846;37.340;2022-10-14T06:26:10;47524.75;;;-143.51;21.73
44309;BME280;30022;55.846;37.340;2022-10-14T06:28:36;47514.88;;;-143.51;21.84
44309;BME280;30022;55.846;37.340;2022-10-14T06:31:02;47516.84;;;-143.51;21.77
44309;BME280;30022;55.846;37.340;2022-10-14T06:33:30;47524.75;;;-143.51;21.84
44309;BME280;30022;55.846;37.340;2022-10-14T06:35:56;47550.44;;;-143.51;21.74
44309;BME280;30022;55.846;37.340;2022-10-14T06:38:22;47487.22;;;-143.51;21.78
44309;BME280;30022;55.846;37.340;2022-10-14T06:40:51;47495.13;;;-143.51;22.01
44309;BME280;30022;55.846;37.340;2022-10-14T06:43:16;47514.88;;;-143.51;21.76
44309;BME280;30022;55.846;37.340;2022-10-14T06:45:42;47554.38;;;-143.51;21.87
44309;BME280;30022;55.846;37.340;2022-10-14T06:48:07;47591.91;;;-143.51;21.95
44309;BME280;30022;55.846;37.340;2022-10-14T06:50:33;47574.13;;;-143.51;21.89
44309;BME280;30022;55.846;37.340;2022-10-14T06:53:00;47562.28;;;-143.51;21.75
44309;BME280;30022;55.846;37.340;2022-10-14T06:55:26;47631.41;;;-143.51;21.96
44309;BME280;30022;55.846;37.340;2022-10-14T06:57:53;47603.75;;;-143.51;21.64
44309;BME280;30022;55.846;37.340;2022-10-14T07:00:20;47576.09;;;-143.51;21.99
44309;BME280;30022;55.846;37.340;2022-10-14T07:02:46;47700.56;;;-143.51;21.97
44309;BME280;30022;55.846;37.340;2022-10-14T07:05:12;47678.81;;;-143.51;21.95
44309;BME280;30022;55.846;37.340;2022-10-14T07:07:37;47639.31;;;-143.51;21.86
44309;BME280;30022;55.846;37.340;2022-10-14T07:10:04;47684.75;;;-143.51;21.95
44309;BME280;30022;55.846;37.340;2022-10-14T07:12:30;47716.34;;;-143.51;22.12
44309;BME280;30022;55.846;37.340;2022-10-14T07:14:57;47704.50;;;-143.51;22.12
44309;BME280;30022;55.846;37.340;2022-10-14T07:17:23;47728.22;;;-143.51;21.84
44309;BME280;30022;55.846;37.340;2022-10-14T07:19:49;47722.28;;;-143.51;22.13
44309;BME280;30022;55.846;37.340;2022-10-14T07:22:15;47732.16;;;-143.51;21.97
44309;BME280;30022;55.846;37.340;2022-10-14T07:24:42;47749.94;;;-143.51;21.80
44309;BME280;30022;55.846;37.340;2022-10-14T07:27:08;47708.44;;;-143.51;21.94
44309;BME280;30022;55.846;37.340;2022-10-14T07:29:34;47694.63;;;-143.51;22.18
44309;BME280;30022;55.846;37.340;2022-10-14T07:32:02;47724.25;;;-143.51;22.11
44309;BME280;30022;55.846;37.340;2022-10-14T07:34:29;47728.22;;;-143.51;21.87
44309;BME280;30022;55.846;37.340;2022-10-14T07:36:55;47718.34;;;-143.51;22.13
44309;BME280;30022;55.846;37.340;2022-10-14T07:39:21;47686.72;;;-143.51;21.92
44309;BME280;30022;55.846;37.340;2022-10-14T07:41:47;47746.00;;;-143.51;21.94
44309;BME280;30022;55.846;37.340;2022-10-14T07:44:20;47773.66;;;-143.51;21.98
44309;BME280;30022;55.846;37.340;2022-10-14T07:46:46;47710.44;;;-143.51;21.93
44309;BME280;30022;55.846;37.340;2022-10-14T07:49:14;47724.25;;;-143.51;22.02
44309;BME280;30022;55.846;37.340;2022-10-14T07:51:41;47740.06;;;-143.51;22.35
44309;BME280;30022;55.846;37.340;2022-10-14T07:54:09;47714.38;;;-143.51;22.40
44309;BME280;30022;55.846;37.340;2022-10-14T07:56:37;47753.88;;;-143.51;22.14
44309;BME280;30022;55.846;37.340;2022-10-14T07:59:03;47712.41;;;-143.51;21.99
44309;BME280;30022;55.846;37.340;2022-10-14T08:01:29;47724.25;;;-143.51;22.07
44309;BME280;30022;55.846;37.340;2022-10-14T08:03:55;47813.16;;;-143.51;22.31
44309;BME280;30022;55.846;37.340;2022-10-14T08:06:24;47767.72;;;-143.51;21.92
44309;BME280;30022;55.846;37.340;2022-10-14T08:08:55;47753.88;;;-143.51;22.11
44309;BME280;30022;55.846;37.340;2022-10-14T08:11:21;47811.19;;;-143.51;22.20
44309;BME280;30022;55.846;37.340;2022-10-14T08:13:49;47771.66;;;-143.51;22.16
44309;BME280;30022;55.846;37.340;2022-10-14T08:16:22;47830.94;;;-143.51;22.37
44309;BME280;30022;55.846;37.340;2022-10-14T08:18:49;47874.38;;;-143.51;22.07
44309;BME280;30022;55.846;37.340;2022-10-14T08:21:15;47811.19;;;-143.51;21.88
44309;BME280;30022;55.846;37.340;2022-10-14T08:23:41;47771.66;;;-143.51;22.13
44309;BME280;30022;55.846;37.340;2022-10-14T08:26:29;47834.88;;;-143.51;22.32
44309;BME280;30022;55.846;37.340;2022-10-14T08:28:53;47815.13;;;-143.51;22.40
44309;BME280;30022;55.846;37.340;2022-10-14T08:31:18;47761.78;;;-143.51;22.19
44309;BME280;30022;55.846;37.340;2022-10-14T08:33:45;47823.03;;;-143.51;22.30
44309;BME280;30022;55.846;37.340;2022-10-14T08:36:12;47823.03;;;-143.51;22.57
44309;BME280;30022;55.846;37.340;2022-10-14T08:38:37;47834.88;;;-143.51;22.39
44309;BME280;30022;55.846;37.340;2022-10-14T08:46:45;47878.34;;;-143.51;22.42
44309;BME280;30022;55.846;37.340;2022-10-14T08:51:59;47898.09;;;-143.51;22.66
44309;BME280;30022;55.846;37.340;2022-10-14T08:54:29;47892.16;;;-143.51;22.57
44309;BME280;30022;55.846;37.340;2022-10-14T08:56:57;47872.41;;;-143.51;21.71
44309;BME280;30022;55.846;37.340;2022-10-14T08:59:25;47870.44;;;-143.51;22.37
44309;BME280;30022;55.846;37.340;2022-10-14T09:02:01;47811.19;;;-143.51;22.20
44309;BME280;30022;55.846;37.340;2022-10-14T09:04:28;47793.41;;;-143.51;22.42
44309;BME280;30022;55.846;37.340;2022-10-14T09:06:57;47834.88;;;-143.51;22.62
44309;BME280;30022;55.846;37.340;2022-10-14T09:11:58;47850.69;;;-143.51;22.67
44309;BME280;30022;55.846;37.340;2022-10-14T09:14:26;47876.38;;;-143.51;22.53
44309;BME280;30022;55.846;37.340;2022-10-14T09:17:00;47947.47;;;-143.51;22.72
44309;BME280;30022;55.846;37.340;2022-10-14T09:19:31;47957.38;;;-143.51;22.23
44309;BME280;30022;55.846;37.340;2022-10-14T09:21:57;47864.50;;;-143.51;22.15
44309;BME280;30022;55.846;37.340;2022-10-14T09:27:02;47923.78;;;-143.51;22.34
44309;BME280;30022;55.846;37.340;2022-10-14T09:29:32;47852.66;;;-143.51;22.17
44309;BME280;30022;55.846;37.340;2022-10-14T09:32:11;47832.91;;;-143.51;22.78
44309;BME280;30022;55.846;37.340;2022-10-14T09:34:47;47898.09;;;-143.51;22.67
44309;BME280;30022;55.846;37.340;2022-10-14T09:39:43;48000.81;;;-143.51;22.26
44309;BME280;30022;55.846;37.340;2022-10-14T09:42:12;47915.88;;;-143.51;22.75
44309;BME280;30022;55.846;37.340;2022-10-14T09:44:42;47975.13;;;-143.51;22.73
44309;BME280;30022;55.846;37.340;2022-10-14T09:47:10;47902.03;;;-143.51;22.74
44309;BME280;30022;55.846;37.340;2022-10-14T09:49:38;47868.47;;;-143.51;22.50
44309;BME280;30022;55.846;37.340;2022-10-14T09:52:06;47882.28;;;-143.51;22.35
44309;BME280;30022;55.846;37.340;2022-10-14T09:54:33;47791.41;;;-143.51;22.29
44309;BME280;30022;55.846;37.340;2022-10-14T09:57:06;47759.81;;;-143.51;22.79
44309;BME280;30022;55.846;37.340;2022-10-14T09:59:37;47787.47;;;-143.51;22.74
44309;BME280;30022;55.846;37.340;2022-10-14T10:02:19;47686.72;;;-143.51;22.68
44309;BME280;30022;55.846;37.340;2022-10-14T10:04:46;47686.72;;;-143.51;22.10
44309;BME280;30022;55.846;37.340;2022-10-14T10:07:32;47607.72;;;-143.51;22.50
44309;BME280;30022;55.846;37.340;2022-10-14T10:09:59;47584.00;;;-143.51;22.45
44309;BME280;30022;55.846;37.340;2022-10-14T10:12:30;47601.78;;;-143.51;22.70
44309;BME280;30022;55.846;37.340;2022-10-14T10:14:57;47617.59;;;-143.51;22.18
44309;BME280;30022;55.846;37.340;2022-10-14T10:17:23;47562.28;;;-143.51;22.79
44309;BME280;30022;55.846;37.340;2022-10-14T10:20:05;47635.38;;;-143.51;22.54
44309;BME280;30022;55.846;37.340;2022-10-14T10:22:32;47582.03;;;-143.51;22.44
44309;BME280;30022;55.846;37.340;2022-10-14T10:27:34;47649.19;;;-143.51;22.72
44309;BME280;30022;55.846;37.340;2022-10-14T10:35:32;47698.56;;;-143.51;22.36
44309;BME280;30022;55.846;37.340;2022-10-14T10:38:07;47694.63;;;-143.51;22.23
44309;BME280;30022;55.846;37.340;2022-10-14T10:40:39;47657.09;;;-143.51;21.97
44309;BME280;30022;55.846;37.340;2022-10-14T10:48:28;47688.69;;;-143.51;22.18
44309;BME280;30022;55.846;37.340;2022-10-14T10:51:06;47708.44;;;-143.51;22.25
44309;BME280;30022;55.846;37.340;2022-10-14T10:53:45;47670.91;;;-143.51;22.34
44309;BME280;30022;55.846;37.340;2022-10-14T10:56:58;47661.03;;;-143.51;21.82
44309;BME280;30022;55.846;37.340;2022-10-14T10:59:27;47680.81;;;-143.51;22.26
44309;BME280;30022;55.846;37.340;2022-10-14T11:04:55;47649.19;;;-143.51;21.88
44309;BME280;30022;55.846;37.340;2022-10-14T11:07:28;47698.56;;;-143.51;22.25
44309;BME280;30022;55.846;37.340;2022-10-14T11:13:53;47651.16;;;-143.51;21.33
44309;BME280;30022;55.846;37.340;2022-10-14T11:16:03;47564.25;;;-143.51;22.31
44309;BME280;30022;55.846;37.340;2022-10-14T11:18:41;47633.38;;;-143.51;22.15
44309;BME280;30022;55.846;37.340;2022-10-14T11:24:26;47653.16;;;-143.51;22.53
44309;BME280;30022;55.846;37.340;2022-10-14T11:39:30;47795.38;;;-143.51;22.11
44309;BME280;30022;55.846;37.340;2022-10-14T11:42:06;47785.50;;;-143.51;22.17
44309;BME280;30022;55.846;37.340;2022-10-14T11:44:40;47773.66;;;-143.51;22.09
44309;BME280;30022;55.846;37.340;2022-10-14T11:47:11;47823.03;;;-143.51;22.21
44309;BME280;30022;55.846;37.340;2022-10-14T11:52:09;47890.19;;;-143.51;22.33
44309;BME280;30022;55.846;37.340;2022-10-14T11:54:55;47838.84;;;-143.51;22.24
44309;BME280;30022;55.846;37.340;2022-10-14T12:00:00;47807.22;;;-143.51;22.28
44309;BME280;30022;55.846;37.340;2022-10-14T12:08:13;47825.00;;;-143.51;22.32
44309;BME280;30022;55.846;37.340;2022-10-14T12:10:48;47923.78;;;-143.51;22.68
44309;BME280;30022;55.846;37.340;2022-10-14T12:13:18;47909.94;;;-143.51;22.57
44309;BME280;30022;55.846;37.340;2022-10-14T12:15:47;47850.69;;;-143.51;22.33
44309;BME280;30022;55.846;37.340;2022-10-14T12:18:13;47909.94;;;-143.51;22.36
44309;BME280;30022;55.846;37.340;2022-10-14T12:23:13;47862.53;;;-143.51;22.34
44309;BME280;30022;55.846;37.340;2022-10-14T12:25:45;47957.38;;;-143.51;22.62
44309;BME280;30022;55.846;37.340;2022-10-14T12:28:16;47959.34;;;-143.51;22.22
44309;BME280;30022;55.846;37.340;2022-10-14T12:30:44;47937.59;;;-143.51;22.28
44309;BME280;30022;55.846;37.340;2022-10-14T12:33:12;47963.28;;;-143.51;22.56
44309;BME280;30022;55.846;37.340;2022-10-14T12:35:54;47975.13;;;-143.51;22.40
44309;BME280;30022;55.846;37.340;2022-10-14T12:38:24;47935.63;;;-143.51;22.40
44309;BME280;30022;55.846;37.340;2022-10-14T12:40:51;47961.31;;;-143.51;22.51
44309;BME280;30022;55.846;37.340;2022-10-14T12:45:53;47992.91;;;-143.51;22.67
44309;BME280;30022;55.846;37.340;2022-10-14T12:48:22;47945.50;;;-143.51;22.33
44309;BME280;30022;55.846;37.340;2022-10-14T12:50:49;47994.91;;;-143.51;22.45
44309;BME280;30022;55.846;37.340;2022-10-14T12:53:23;48028.47;;;-143.51;22.66
44309;BME280;30022;55.846;37.340;2022-10-14T12:56:00;47996.88;;;-143.51;22.48
44309;BME280;30022;55.846;37.340;2022-10-14T12:58:32;47985.03;;;-143.51;22.62
44309;BME280;30022;55.846;37.340;2022-10-14T13:01:01;48054.16;;;-143.51;22.71
44309;BME280;30022;55.846;37.340;2022-10-14T13:03:30;48050.22;;;-143.51;22.79
44309;BME280;30022;55.846;37.340;2022-10-14T13:06:39;48052.19;;;-143.51;22.56
44309;BME280;30022;55.846;37.340;2022-10-14T13:11:32;48099.59;;;-143.51;22.47
44309;BME280;30022;55.846;37.340;2022-10-14T13:13:59;48093.69;;;-143.51;22.61
44309;BME280;30022;55.846;37.340;2022-10-14T13:18:58;48123.31;;;-143.51;22.58
44309;BME280;30022;55.846;37.340;2022-10-14T13:24:02;48129.22;;;-143.51;22.66
44309;BME280;30022;55.846;37.340;2022-10-14T13:26:36;48150.97;;;-143.51;22.49
44309;BME280;30022;55.846;37.340;2022-10-14T13:34:17;48117.38;;;-143.51;22.61
44309;BME280;30022;55.846;37.340;2022-10-14T13:39:30;48107.50;;;-143.51;22.70
44309;BME280;30022;55.846;37.340;2022-10-14T13:41:57;48145.03;;;-143.51;22.67
44309;BME280;30022;55.846;37.340;2022-10-14T13:44:23;48103.56;;;-143.51;22.78
44309;BME280;30022;55.846;37.340;2022-10-14T13:46:55;48075.91;;;-143.51;22.65
44309;BME280;30022;55.846;37.340;2022-10-14T13:49:23;48091.69;;;-143.51;22.46
44309;BME280;30022;55.846;37.340;2022-10-14T13:52:00;48018.59;;;-143.51;22.74
44309;BME280;30022;55.846;37.340;2022-10-14T13:54:30;47987.00;;;-143.51;22.50
44309;BME280;30022;55.846;37.340;2022-10-14T13:57:09;47931.69;;;-143.51;22.74
44309;BME280;30022;55.846;37.340;2022-10-14T13:59:40;47961.31;;;-143.51;22.86
44309;BME280;30022;55.846;37.340;2022-10-14T14:02:13;48012.69;;;-143.51;22.85
44309;BME280;30022;55.846;37.340;2022-10-14T14:04:40;48075.91;;;-143.51;22.55
44309;BME280;30022;55.846;37.340;2022-10-14T14:07:10;48018.59;;;-143.51;22.70
44309;BME280;30022;55.846;37.340;2022-10-14T14:09:36;48089.72;;;-143.51;22.60
44309;BME280;30022;55.846;37.340;2022-10-14T14:12:03;48054.16;;;-143.51;22.61
44309;BME280;30022;55.846;37.340;2022-10-14T14:14:36;48123.31;;;-143.51;22.43
44309;BME280;30022;55.846;37.340;2022-10-14T14:17:04;48048.22;;;-143.51;22.69
44309;BME280;30022;55.846;37.340;2022-10-14T14:19:33;48046.25;;;-143.51;22.56
44309;BME280;30022;55.846;37.340;2022-10-14T14:24:44;48026.50;;;-143.51;22.64
44309;BME280;30022;55.846;37.340;2022-10-14T14:27:13;48066.00;;;-143.51;22.61
44309;BME280;30022;55.846;37.340;2022-10-14T14:29:40;48024.53;;;-143.51;22.99
44309;BME280;30022;55.846;37.340;2022-10-14T14:32:10;48133.19;;;-143.51;22.59
44309;BME280;30022;55.846;37.340;2022-10-14T14:34:37;48127.25;;;-143.51;22.40
44309;BME280;30022;55.846;37.340;2022-10-14T14:37:11;48077.88;;;-143.51;22.48
44309;BME280;30022;55.846;37.340;2022-10-14T14:39:38;48087.75;;;-143.51;22.63
44309;BME280;30022;55.846;37.340;2022-10-14T14:42:04;48105.53;;;-143.51;22.30